sensor_id;sensor_type;location;lat;lon;timestamp;P1;durP1;ratioP1;P2;durP2;ratioP2
35592;SDS011;64447;52.140;5.602;2023-08-06T01:59:58;15.63;;;11.88;;
35592;SDS011;64447;52.140;5.602;2023-08-06T02:02:24;17.73;;;12.20;;
35592;SDS011;64447;52.140;5.602;2023-08-06T02:29:05;16.13;;;13.07;;
35592;SDS011;64447;52.140;5.602;2023-08-06T04:40:12;21.25;;;16.05;;
35592;SDS011;64447;52.140;5.602;2023-08-06T04:42:38;19.45;;;15.98;;
35592;SDS011;64447;52.140;5.602;2023-08-06T04:49:55;21.55;;;15.60;;
35592;SDS011;64447;52.140;5.602;2023-08-06T04:52:21;20.30;;;16.70;;
35592;SDS011;64447;52.140;5.602;2023-08-06T04:54:46;21.40;;;15.90;;
35592;SDS011;64447;52.140;5.602;2023-08-06T04:57:12;20.05;;;16.20;;
35592;SDS011;64447;52.140;5.602;2023-08-06T04:59:38;20.05;;;15.73;;
35592;SDS011;64447;52.140;5.602;2023-08-06T05:02:04;21.23;;;15.60;;
35592;SDS011;64447;52.140;5.602;2023-08-06T05:04:30;19.48;;;16.05;;
35592;SDS011;64447;52.140;5.602;2023-08-06T05:06:55;21.35;;;16.15;;
35592;SDS011;64447;52.140;5.602;2023-08-06T05:09:21;20.05;;;16.38;;
35592;SDS011;64447;52.140;5.602;2023-08-06T05:11:47;20.95;;;15.70;;
35592;SDS011;64447;52.140;5.602;2023-08-06T05:14:13;18.75;;;15.85;;
35592;SDS011;64447;52.140;5.602;2023-08-06T05:16:38;22.92;;;16.48;;
35592;SDS011;64447;52.140;5.602;2023-08-06T05:19:04;20.77;;;15.38;;
35592;SDS011;64447;52.140;5.602;2023-08-06T05:21:30;19.52;;;15.95;;
35592;SDS011;64447;52.140;5.602;2023-08-06T05:23:55;20.00;;;17.33;;
35592;SDS011;64447;52.140;5.602;2023-08-06T05:26:21;23.17;;;17.33;;
35592;SDS011;64447;52.140;5.602;2023-08-06T05:28:46;18.88;;;15.65;;
35592;SDS011;64447;52.140;5.602;2023-08-06T05:31:12;19.55;;;15.57;;
35592;SDS011;64447;52.140;5.602;2023-08-06T05:33:38;20.00;;;17.63;;
35592;SDS011;64447;52.140;5.602;2023-08-06T05:36:03;19.83;;;15.80;;
35592;SDS011;64447;52.140;5.602;2023-08-06T05:38:29;20.33;;;15.77;;
35592;SDS011;64447;52.140;5.602;2023-08-06T05:40:55;19.80;;;17.40;;
35592;SDS011;64447;52.140;5.602;2023-08-06T05:43:21;17.40;;;15.43;;
35592;SDS011;64447;52.140;5.602;2023-08-06T05:45:49;19.60;;;16.93;;
35592;SDS011;64447;52.140;5.602;2023-08-06T05:48:15;19.13;;;15.10;;
35592;SDS011;64447;52.140;5.602;2023-08-06T05:50:41;17.23;;;14.82;;
35592;SDS011;64447;52.140;5.602;2023-08-06T05:53:07;17.85;;;14.07;;
35592;SDS011;64447;52.140;5.602;2023-08-06T05:55:33;16.52;;;14.15;;
35592;SDS011;64447;52.140;5.602;2023-08-06T05:57:59;15.77;;;13.65;;
35592;SDS011;64447;52.140;5.602;2023-08-06T06:00:25;17.55;;;13.88;;
35592;SDS011;64447;52.140;5.602;2023-08-06T06:02:50;17.42;;;15.15;;
35592;SDS011;64447;52.140;5.602;2023-08-06T06:05:16;17.17;;;15.00;;
35592;SDS011;64447;52.140;5.602;2023-08-06T06:07:42;19.02;;;16.08;;
35592;SDS011;64447;52.140;5.602;2023-08-06T06:10:07;17.52;;;15.38;;
35592;SDS011;64447;52.140;5.602;2023-08-06T06:12:33;16.23;;;14.30;;
35592;SDS011;64447;52.140;5.602;2023-08-06T06:14:59;15.80;;;13.45;;
35592;SDS011;64447;52.140;5.602;2023-08-06T06:17:26;17.45;;;13.02;;
35592;SDS011;64447;52.140;5.602;2023-08-06T06:19:54;18.67;;;13.90;;
35592;SDS011;64447;52.140;5.602;2023-08-06T06:22:20;18.13;;;14.10;;
35592;SDS011;64447;52.140;5.602;2023-08-06T06:24:45;16.27;;;13.67;;
35592;SDS011;64447;52.140;5.602;2023-08-06T06:27:11;17.23;;;14.57;;
35592;SDS011;64447;52.140;5.602;2023-08-06T06:29:36;16.63;;;13.95;;
35592;SDS011;64447;52.140;5.602;2023-08-06T06:32:02;17.90;;;14.90;;
35592;SDS011;64447;52.140;5.602;2023-08-06T06:34:28;14.80;;;12.73;;
35592;SDS011;64447;52.140;5.602;2023-08-06T06:36:53;14.93;;;12.57;;
35592;SDS011;64447;52.140;5.602;2023-08-06T06:39:20;16.60;;;14.57;;
35592;SDS011;64447;52.140;5.602;2023-08-06T06:41:46;15.30;;;13.55;;
35592;SDS011;64447;52.140;5.602;2023-08-06T06:44:13;13.85;;;12.45;;
35592;SDS011;64447;52.140;5.602;2023-08-06T06:46:38;13.60;;;12.17;;
35592;SDS011;64447;52.140;5.602;2023-08-06T06:49:04;13.95;;;12.00;;
35592;SDS011;64447;52.140;5.602;2023-08-06T06:51:29;12.60;;;11.17;;
35592;SDS011;64447;52.140;5.602;2023-08-06T06:53:56;12.10;;;10.10;;
35592;SDS011;64447;52.140;5.602;2023-08-06T06:56:22;10.70;;;9.27;;
35592;SDS011;64447;52.140;5.602;2023-08-06T07:03:39;8.75;;;7.82;;
35592;SDS011;64447;52.140;5.602;2023-08-06T07:06:05;9.45;;;8.45;;
35592;SDS011;64447;52.140;5.602;2023-08-06T07:08:31;9.25;;;8.35;;
35592;SDS011;64447;52.140;5.602;2023-08-06T07:11:04;11.57;;;10.05;;
35592;SDS011;64447;52.140;5.602;2023-08-06T07:13:31;11.68;;;10.00;;
35592;SDS011;64447;52.140;5.602;2023-08-06T07:15:57;11.63;;;10.32;;
35592;SDS011;64447;52.140;5.602;2023-08-06T07:18:23;12.93;;;9.60;;
35592;SDS011;64447;52.140;5.602;2023-08-06T07:20:53;12.07;;;8.63;;
35592;SDS011;64447;52.140;5.602;2023-08-06T07:23:20;12.18;;;10.88;;
35592;SDS011;64447;52.140;5.602;2023-08-06T07:25:46;13.05;;;10.95;;
35592;SDS011;64447;52.140;5.602;2023-08-06T07:28:13;12.65;;;11.30;;
35592;SDS011;64447;52.140;5.602;2023-08-06T07:30:39;12.30;;;11.00;;
35592;SDS011;64447;52.140;5.602;2023-08-06T07:33:05;14.18;;;11.70;;
35592;SDS011;64447;52.140;5.602;2023-08-06T07:35:31;14.90;;;12.73;;
35592;SDS011;64447;52.140;5.602;2023-08-06T07:37:57;14.82;;;12.80;;
35592;SDS011;64447;52.140;5.602;2023-08-06T07:40:23;14.80;;;12.80;;
35592;SDS011;64447;52.140;5.602;2023-08-06T07:42:49;16.20;;;13.30;;
35592;SDS011;64447;52.140;5.602;2023-08-06T07:45:14;15.18;;;13.57;;
35592;SDS011;64447;52.140;5.602;2023-08-06T07:47:40;15.47;;;13.30;;
35592;SDS011;64447;52.140;5.602;2023-08-06T07:50:06;14.60;;;12.40;;
35592;SDS011;64447;52.140;5.602;2023-08-06T07:52:31;15.18;;;13.10;;
35592;SDS011;64447;52.140;5.602;2023-08-06T07:54:57;16.33;;;12.63;;
35592;SDS011;64447;52.140;5.602;2023-08-06T07:57:23;14.87;;;11.83;;
35592;SDS011;64447;52.140;5.602;2023-08-06T07:59:49;15.35;;;12.77;;
35592;SDS011;64447;52.140;5.602;2023-08-06T08:02:15;17.40;;;13.75;;
35592;SDS011;64447;52.140;5.602;2023-08-06T08:04:40;15.83;;;13.97;;
35592;SDS011;64447;52.140;5.602;2023-08-06T08:07:06;16.58;;;14.40;;
35592;SDS011;64447;52.140;5.602;2023-08-06T08:09:32;17.00;;;14.65;;
35592;SDS011;64447;52.140;5.602;2023-08-06T08:11:59;17.40;;;15.05;;
35592;SDS011;64447;52.140;5.602;2023-08-06T08:14:26;17.67;;;15.55;;
35592;SDS011;64447;52.140;5.602;2023-08-06T08:16:51;18.63;;;15.07;;
35592;SDS011;64447;52.140;5.602;2023-08-06T08:19:17;17.83;;;15.60;;
35592;SDS011;64447;52.140;5.602;2023-08-06T08:21:42;18.90;;;15.88;;
35592;SDS011;64447;52.140;5.602;2023-08-06T08:24:09;21.40;;;16.42;;
35592;SDS011;64447;52.140;5.602;2023-08-06T08:26:35;19.02;;;16.58;;
35592;SDS011;64447;52.140;5.602;2023-08-06T08:29:00;21.50;;;16.20;;
35592;SDS011;64447;52.140;5.602;2023-08-06T08:31:26;20.63;;;17.73;;
35592;SDS011;64447;52.140;5.602;2023-08-06T08:33:53;21.88;;;17.20;;
35592;SDS011;64447;52.140;5.602;2023-08-06T08:36:19;19.05;;;16.42;;
35592;SDS011;64447;52.140;5.602;2023-08-06T09:30:32;29.50;;;23.30;;
35592;SDS011;64447;52.140;5.602;2023-08-06T12:42:29;5.40;;;4.32;;
35592;SDS011;64447;52.140;5.602;2023-08-06T12:48:16;6.47;;;4.78;;
35592;SDS011;64447;52.140;5.602;2023-08-06T12:50:42;6.47;;;4.53;;
35592;SDS011;64447;52.140;5.602;2023-08-06T12:53:08;5.40;;;4.38;;
35592;SDS011;64447;52.140;5.602;2023-08-06T12:55:33;6.43;;;4.57;;
35592;SDS011;64447;52.140;5.602;2023-08-06T12:57:59;5.73;;;4.37;;
35592;SDS011;64447;52.140;5.602;2023-08-06T13:03:46;6.07;;;4.50;;
35592;SDS011;64447;52.140;5.602;2023-08-06T13:06:12;6.45;;;4.40;;
35592;SDS011;64447;52.140;5.602;2023-08-06T13:08:38;7.40;;;5.07;;
35592;SDS011;64447;52.140;5.602;2023-08-06T13:11:04;6.45;;;5.45;;
35592;SDS011;64447;52.140;5.602;2023-08-06T13:13:30;5.97;;;5.35;;
35592;SDS011;64447;52.140;5.602;2023-08-06T13:15:55;6.68;;;5.40;;
35592;SDS011;64447;52.140;5.602;2023-08-06T13:18:21;6.20;;;4.17;;
35592;SDS011;64447;52.140;5.602;2023-08-06T13:20:47;5.45;;;3.75;;
35592;SDS011;64447;52.140;5.602;2023-08-06T13:23:14;5.65;;;3.45;;
35592;SDS011;64447;52.140;5.602;2023-08-06T13:25:41;3.78;;;3.35;;
35592;SDS011;64447;52.140;5.602;2023-08-06T13:28:07;4.32;;;3.30;;
35592;SDS011;64447;52.140;5.602;2023-08-06T13:33:55;4.82;;;3.60;;
35592;SDS011;64447;52.140;5.602;2023-08-06T13:36:22;5.40;;;4.13;;
35592;SDS011;64447;52.140;5.602;2023-08-06T13:38:48;5.97;;;4.63;;
35592;SDS011;64447;52.140;5.602;2023-08-06T13:41:14;5.57;;;4.47;;
35592;SDS011;64447;52.140;5.602;2023-08-06T13:43:40;5.70;;;4.82;;
35592;SDS011;64447;52.140;5.602;2023-08-06T13:46:05;7.83;;;5.43;;
35592;SDS011;64447;52.140;5.602;2023-08-06T13:48:31;6.93;;;5.22;;
35592;SDS011;64447;52.140;5.602;2023-08-06T13:50:57;7.05;;;5.60;;
35592;SDS011;64447;52.140;5.602;2023-08-06T13:53:23;7.83;;;5.77;;
35592;SDS011;64447;52.140;5.602;2023-08-06T13:55:50;6.95;;;5.70;;
35592;SDS011;64447;52.140;5.602;2023-08-06T13:58:15;7.20;;;5.70;;
35592;SDS011;64447;52.140;5.602;2023-08-06T14:04:03;7.60;;;5.82;;
35592;SDS011;64447;52.140;5.602;2023-08-06T14:06:29;7.57;;;5.17;;
35592;SDS011;64447;52.140;5.602;2023-08-06T14:08:56;7.47;;;4.80;;
35592;SDS011;64447;52.140;5.602;2023-08-06T14:11:22;6.17;;;4.70;;
35592;SDS011;64447;52.140;5.602;2023-08-06T14:13:47;5.78;;;4.85;;
35592;SDS011;64447;52.140;5.602;2023-08-06T14:16:13;6.10;;;4.97;;
35592;SDS011;64447;52.140;5.602;2023-08-06T14:18:39;7.50;;;5.03;;
35592;SDS011;64447;52.140;5.602;2023-08-06T14:21:06;6.55;;;4.78;;
35592;SDS011;64447;52.140;5.602;2023-08-06T14:23:32;7.43;;;5.70;;
35592;SDS011;64447;52.140;5.602;2023-08-06T14:25:57;6.43;;;5.70;;
35592;SDS011;64447;52.140;5.602;2023-08-06T14:28:23;8.05;;;5.75;;
35592;SDS011;64447;52.140;5.602;2023-08-06T14:34:10;7.53;;;5.78;;
35592;SDS011;64447;52.140;5.602;2023-08-06T14:36:36;7.32;;;5.82;;
35592;SDS011;64447;52.140;5.602;2023-08-06T14:39:01;10.23;;;6.07;;
35592;SDS011;64447;52.140;5.602;2023-08-06T14:41:27;6.72;;;5.65;;
35592;SDS011;64447;52.140;5.602;2023-08-06T14:43:53;7.77;;;5.90;;
35592;SDS011;64447;52.140;5.602;2023-08-06T14:46:19;7.40;;;5.90;;
35592;SDS011;64447;52.140;5.602;2023-08-06T14:48:45;6.95;;;5.78;;
35592;SDS011;64447;52.140;5.602;2023-08-06T14:51:10;8.30;;;6.07;;
35592;SDS011;64447;52.140;5.602;2023-08-06T14:53:36;9.53;;;6.47;;
35592;SDS011;64447;52.140;5.602;2023-08-06T14:56:01;6.87;;;5.90;;
35592;SDS011;64447;52.140;5.602;2023-08-06T14:58:27;6.83;;;6.07;;
35592;SDS011;64447;52.140;5.602;2023-08-06T15:04:14;7.83;;;6.57;;
35592;SDS011;64447;52.140;5.602;2023-08-06T15:06:40;6.35;;;5.65;;
35592;SDS011;64447;52.140;5.602;2023-08-06T15:09:06;7.27;;;5.90;;
35592;SDS011;64447;52.140;5.602;2023-08-06T15:11:32;8.60;;;6.10;;
35592;SDS011;64447;52.140;5.602;2023-08-06T15:13:58;7.85;;;5.63;;
35592;SDS011;64447;52.140;5.602;2023-08-06T15:19:48;6.75;;;5.03;;
35592;SDS011;64447;52.140;5.602;2023-08-06T15:22:13;5.45;;;4.55;;
35592;SDS011;64447;52.140;5.602;2023-08-06T15:24:39;5.80;;;4.50;;
35592;SDS011;64447;52.140;5.602;2023-08-06T15:27:07;5.55;;;4.28;;
35592;SDS011;64447;52.140;5.602;2023-08-06T15:29:34;5.40;;;3.53;;
35592;SDS011;64447;52.140;5.602;2023-08-06T15:32:00;7.47;;;3.60;;
35592;SDS011;64447;52.140;5.602;2023-08-06T15:34:25;6.00;;;3.43;;
35592;SDS011;64447;52.140;5.602;2023-08-06T15:36:51;5.40;;;2.08;;
35592;SDS011;64447;52.140;5.602;2023-08-06T15:39:17;6.32;;;2.20;;
35592;SDS011;64447;52.140;5.602;2023-08-06T15:41:42;5.33;;;1.90;;
35592;SDS011;64447;52.140;5.602;2023-08-06T15:44:08;5.63;;;2.10;;
35592;SDS011;64447;52.140;5.602;2023-08-06T15:49:55;4.63;;;1.65;;
35592;SDS011;64447;52.140;5.602;2023-08-06T15:52:21;3.50;;;1.67;;
35592;SDS011;64447;52.140;5.602;2023-08-06T15:54:46;4.60;;;1.50;;
35592;SDS011;64447;52.140;5.602;2023-08-06T15:57:12;3.90;;;1.48;;
35592;SDS011;64447;52.140;5.602;2023-08-06T15:59:40;4.65;;;1.50;;
35592;SDS011;64447;52.140;5.602;2023-08-06T16:02:06;5.00;;;1.53;;
35592;SDS011;64447;52.140;5.602;2023-08-06T16:04:33;4.90;;;1.50;;
35592;SDS011;64447;52.140;5.602;2023-08-06T16:06:59;6.38;;;1.50;;
35592;SDS011;64447;52.140;5.602;2023-08-06T16:09:24;5.33;;;1.80;;
35592;SDS011;64447;52.140;5.602;2023-08-06T16:11:50;4.30;;;1.45;;
35592;SDS011;64447;52.140;5.602;2023-08-06T16:14:17;4.63;;;1.63;;
35592;SDS011;64447;52.140;5.602;2023-08-06T16:20:05;6.03;;;1.42;;
35592;SDS011;64447;52.140;5.602;2023-08-06T16:22:31;4.37;;;1.30;;
35592;SDS011;64447;52.140;5.602;2023-08-06T16:24:57;5.65;;;1.58;;
35592;SDS011;64447;52.140;5.602;2023-08-06T16:27:23;3.60;;;1.13;;
35592;SDS011;64447;52.140;5.602;2023-08-06T16:29:48;4.27;;;1.23;;
35592;SDS011;64447;52.140;5.602;2023-08-06T16:32:14;5.80;;;1.40;;
35592;SDS011;64447;52.140;5.602;2023-08-06T16:34:39;5.53;;;1.30;;
35592;SDS011;64447;52.140;5.602;2023-08-06T16:37:05;4.80;;;1.30;;
35592;SDS011;64447;52.140;5.602;2023-08-06T16:39:31;4.90;;;1.23;;
35592;SDS011;64447;52.140;5.602;2023-08-06T16:41:56;5.03;;;1.30;;
35592;SDS011;64447;52.140;5.602;2023-08-06T16:44:25;5.85;;;1.30;;
35592;SDS011;64447;52.140;5.602;2023-08-06T16:50:13;4.60;;;1.67;;
35592;SDS011;64447;52.140;5.602;2023-08-06T16:52:38;5.28;;;1.70;;
35592;SDS011;64447;52.140;5.602;2023-08-06T16:55:04;5.33;;;1.50;;
35592;SDS011;64447;52.140;5.602;2023-08-06T16:57:30;8.38;;;1.60;;
35592;SDS011;64447;52.140;5.602;2023-08-06T16:59:56;4.40;;;1.30;;
35592;SDS011;64447;52.140;5.602;2023-08-06T17:02:21;4.33;;;1.47;;
35592;SDS011;64447;52.140;5.602;2023-08-06T17:04:47;5.15;;;1.88;;
35592;SDS011;64447;52.140;5.602;2023-08-06T17:07:13;4.50;;;1.30;;
35592;SDS011;64447;52.140;5.602;2023-08-06T17:09:38;3.23;;;1.30;;
35592;SDS011;64447;52.140;5.602;2023-08-06T17:12:04;5.20;;;1.57;;
35592;SDS011;64447;52.140;5.602;2023-08-06T17:14:29;5.33;;;1.80;;
35592;SDS011;64447;52.140;5.602;2023-08-06T17:20:17;2.75;;;1.40;;
35592;SDS011;64447;52.140;5.602;2023-08-06T17:22:43;6.45;;;1.80;;
35592;SDS011;64447;52.140;5.602;2023-08-06T17:25:08;3.53;;;1.07;;
35592;SDS011;64447;52.140;5.602;2023-08-06T17:27:34;3.90;;;1.23;;
35592;SDS011;64447;52.140;5.602;2023-08-06T17:30:00;5.00;;;1.30;;
35592;SDS011;64447;52.140;5.602;2023-08-06T17:35:48;5.32;;;1.73;;
35592;SDS011;64447;52.140;5.602;2023-08-06T17:38:14;5.25;;;1.40;;
35592;SDS011;64447;52.140;5.602;2023-08-06T17:40:40;3.55;;;1.33;;
35592;SDS011;64447;52.140;5.602;2023-08-06T17:43:07;4.90;;;1.70;;
35592;SDS011;64447;52.140;5.602;2023-08-06T17:45:33;3.60;;;1.23;;
35592;SDS011;64447;52.140;5.602;2023-08-06T17:47:59;3.90;;;1.20;;
35592;SDS011;64447;52.140;5.602;2023-08-06T17:50:25;4.35;;;1.45;;
35592;SDS011;64447;52.140;5.602;2023-08-06T17:52:51;6.10;;;1.33;;
35592;SDS011;64447;52.140;5.602;2023-08-06T17:55:17;4.30;;;1.40;;
35592;SDS011;64447;52.140;5.602;2023-08-06T17:57:43;7.45;;;1.60;;
35592;SDS011;64447;52.140;5.602;2023-08-06T18:00:08;3.67;;;1.50;;
35592;SDS011;64447;52.140;5.602;2023-08-06T18:05:56;6.10;;;1.83;;
35592;SDS011;64447;52.140;5.602;2023-08-06T18:08:22;4.28;;;1.67;;
35592;SDS011;64447;52.140;5.602;2023-08-06T18:10:49;6.13;;;1.87;;
35592;SDS011;64447;52.140;5.602;2023-08-06T18:13:17;7.95;;;2.00;;
35592;SDS011;64447;52.140;5.602;2023-08-06T18:15:43;7.20;;;2.20;;
35592;SDS011;64447;52.140;5.602;2023-08-06T18:18:09;7.28;;;1.85;;
35592;SDS011;64447;52.140;5.602;2023-08-06T18:20:35;6.20;;;1.80;;
35592;SDS011;64447;52.140;5.602;2023-08-06T18:23:01;6.10;;;1.70;;
35592;SDS011;64447;52.140;5.602;2023-08-06T18:25:27;6.82;;;1.98;;
35592;SDS011;64447;52.140;5.602;2023-08-06T18:27:53;7.13;;;2.28;;
35592;SDS011;64447;52.140;5.602;2023-08-06T18:30:19;5.95;;;1.98;;
35592;SDS011;64447;52.140;5.602;2023-08-06T18:36:06;11.13;;;2.30;;
35592;SDS011;64447;52.140;5.602;2023-08-06T18:38:32;6.85;;;2.15;;
35592;SDS011;64447;52.140;5.602;2023-08-06T18:41:00;5.43;;;1.97;;
35592;SDS011;64447;52.140;5.602;2023-08-06T18:43:26;6.53;;;2.05;;
35592;SDS011;64447;52.140;5.602;2023-08-06T18:45:52;6.40;;;2.00;;
35592;SDS011;64447;52.140;5.602;2023-08-06T18:48:20;3.95;;;2.05;;
35592;SDS011;64447;52.140;5.602;2023-08-06T18:50:45;6.60;;;2.23;;
35592;SDS011;64447;52.140;5.602;2023-08-06T18:53:11;8.20;;;2.30;;
35592;SDS011;64447;52.140;5.602;2023-08-06T18:55:44;7.80;;;2.33;;
35592;SDS011;64447;52.140;5.602;2023-08-06T18:58:14;10.52;;;2.63;;
35592;SDS011;64447;52.140;5.602;2023-08-06T19:00:40;5.87;;;2.20;;
35592;SDS011;64447;52.140;5.602;2023-08-06T19:06:27;7.45;;;2.00;;
35592;SDS011;64447;52.140;5.602;2023-08-06T19:08:54;8.10;;;2.42;;
35592;SDS011;64447;52.140;5.602;2023-08-06T19:11:20;7.07;;;2.28;;
35592;SDS011;64447;52.140;5.602;2023-08-06T19:13:45;5.70;;;2.10;;
35592;SDS011;64447;52.140;5.602;2023-08-06T19:16:11;5.82;;;2.05;;
35592;SDS011;64447;52.140;5.602;2023-08-06T19:18:36;7.05;;;1.67;;
35592;SDS011;64447;52.140;5.602;2023-08-06T19:21:02;4.93;;;1.67;;
35592;SDS011;64447;52.140;5.602;2023-08-06T19:23:28;4.85;;;1.75;;
35592;SDS011;64447;52.140;5.602;2023-08-06T19:25:53;4.03;;;1.47;;
35592;SDS011;64447;52.140;5.602;2023-08-06T19:28:19;5.53;;;1.67;;
35592;SDS011;64447;52.140;5.602;2023-08-06T19:30:46;6.70;;;2.00;;
35592;SDS011;64447;52.140;5.602;2023-08-06T19:36:34;3.88;;;1.48;;
35592;SDS011;64447;52.140;5.602;2023-08-06T19:39:00;3.90;;;1.50;;
35592;SDS011;64447;52.140;5.602;2023-08-06T19:41:25;3.08;;;1.15;;
35592;SDS011;64447;52.140;5.602;2023-08-06T19:43:51;4.87;;;1.50;;
35592;SDS011;64447;52.140;5.602;2023-08-06T19:46:16;4.77;;;1.47;;
35592;SDS011;64447;52.140;5.602;2023-08-06T19:48:42;4.10;;;1.30;;
35592;SDS011;64447;52.140;5.602;2023-08-06T19:51:08;3.93;;;1.40;;
35592;SDS011;64447;52.140;5.602;2023-08-06T19:53:34;4.88;;;1.50;;
35592;SDS011;64447;52.140;5.602;2023-08-06T19:56:00;6.10;;;1.73;;
35592;SDS011;64447;52.140;5.602;2023-08-06T19:58:27;4.75;;;1.30;;
35592;SDS011;64447;52.140;5.602;2023-08-06T20:00:54;3.57;;;1.50;;
35592;SDS011;64447;52.140;5.602;2023-08-06T20:06:43;3.78;;;1.42;;
35592;SDS011;64447;52.140;5.602;2023-08-06T20:09:08;3.63;;;1.60;;
35592;SDS011;64447;52.140;5.602;2023-08-06T20:11:34;3.58;;;1.73;;
35592;SDS011;64447;52.140;5.602;2023-08-06T20:14:00;6.78;;;1.75;;
35592;SDS011;64447;52.140;5.602;2023-08-06T20:16:25;3.20;;;1.53;;
35592;SDS011;64447;52.140;5.602;2023-08-06T20:18:51;4.57;;;1.60;;
35592;SDS011;64447;52.140;5.602;2023-08-06T20:21:17;5.32;;;1.77;;
35592;SDS011;64447;52.140;5.602;2023-08-06T20:23:43;4.33;;;2.10;;
35592;SDS011;64447;52.140;5.602;2023-08-06T20:26:08;5.03;;;1.60;;
35592;SDS011;64447;52.140;5.602;2023-08-06T20:28:34;2.72;;;1.65;;
35592;SDS011;64447;52.140;5.602;2023-08-06T20:31:00;3.45;;;1.67;;
35592;SDS011;64447;52.140;5.602;2023-08-06T20:36:47;5.57;;;1.85;;
35592;SDS011;64447;52.140;5.602;2023-08-06T20:39:13;4.53;;;1.60;;
35592;SDS011;64447;52.140;5.602;2023-08-06T20:41:39;5.10;;;1.60;;
35592;SDS011;64447;52.140;5.602;2023-08-06T20:44:04;3.85;;;1.70;;
35592;SDS011;64447;52.140;5.602;2023-08-06T20:46:30;3.93;;;1.40;;
35592;SDS011;64447;52.140;5.602;2023-08-06T20:48:55;3.90;;;1.50;;
35592;SDS011;64447;52.140;5.602;2023-08-06T20:51:21;4.07;;;1.60;;
35592;SDS011;64447;52.140;5.602;2023-08-06T20:53:46;3.38;;;1.23;;
35592;SDS011;64447;52.140;5.602;2023-08-06T20:56:12;4.13;;;1.60;;
35592;SDS011;64447;52.140;5.602;2023-08-06T20:58:41;4.13;;;1.60;;
35592;SDS011;64447;52.140;5.602;2023-08-06T21:01:06;3.87;;;1.47;;
35592;SDS011;64447;52.140;5.602;2023-08-06T21:06:53;5.22;;;1.70;;
35592;SDS011;64447;52.140;5.602;2023-08-06T21:09:19;5.22;;;1.75;;
35592;SDS011;64447;52.140;5.602;2023-08-06T21:11:46;4.97;;;2.00;;
35592;SDS011;64447;52.140;5.602;2023-08-06T21:14:11;5.90;;;1.93;;
35592;SDS011;64447;52.140;5.602;2023-08-06T21:21:31;4.32;;;1.40;;
